Time;durP1;ratioP1;P1;durP2;ratioP2;P2;SDS_P1;SDS_P2;PMS_P1;PMS_P2;Temp;Humidity;BMP_temperature;BMP_pressure;BME280_temperature;BME280_humidity;BME280_pressure;Samples;Min_cycle;Max_cycle;Signal;HPM_P1;HPM_P2
2022/10/11 00:01:19;;;;;;;10.82;3.35;;;;;;;;;;4990810;28;20220;-62
2022/10/11 00:03:44;;;;;;;19.05;4.43;;;;;;;;;;4995507;28;20619;-62
2022/10/11 00:06:10;;;;;;;11.18;3.28;;;;;;;;;;5001687;28;20217;-62
2022/10/11 00:08:35;;;;;;;10.93;3.13;;;;;;;;;;5003754;28;20236;-63
2022/10/11 00:11:01;;;;;;;16.73;3.40;;;;;;;;;;5003242;28;20224;-62
2022/10/11 00:13:27;;;;;;;15.10;3.20;;;;;;;;;;5003137;28;20247;-62
2022/10/11 00:15:52;;;;;;;15.35;3.33;;;;;;;;;;5003865;28;20220;-62
2022/10/11 00:18:17;;;;;;;11.73;3.40;;;;;;;;;;5001146;28;20247;-62
2022/10/11 00:20:42;;;;;;;11.63;3.30;;;;;;;;;;4988184;28;20224;-62
2022/10/11 00:23:08;;;;;;;10.63;3.00;;;;;;;;;;4990521;28;20212;-62
2022/10/11 00:25:33;;;;;;;15.45;3.50;;;;;;;;;;4992033;28;20372;-62
2022/10/11 00:27:58;;;;;;;12.50;3.15;;;;;;;;;;4998491;28;20229;-62
2022/10/11 00:30:23;;;;;;;14.65;3.15;;;;;;;;;;4998066;28;20473;-62
2022/10/11 00:32:49;;;;;;;16.02;3.40;;;;;;;;;;4997771;28;20219;-62
2022/10/11 00:35:14;;;;;;;12.65;3.20;;;;;;;;;;4997393;28;20215;-62
2022/10/11 00:37:39;;;;;;;16.15;3.80;;;;;;;;;;4998039;28;20226;-62
2022/10/11 00:40:06;;;;;;;13.07;2.90;;;;;;;;;;4997176;28;20311;-62
2022/10/11 00:42:31;;;;;;;14.20;3.17;;;;;;;;;;4991611;28;20216;-62
2022/10/11 00:45:15;;;;;;;15.63;3.92;;;;;;;;;;4990366;28;20216;-62
2022/10/11 00:47:40;;;;;;;11.80;3.65;;;;;;;;;;4989368;28;20247;-62
2022/10/11 00:50:06;;;;;;;16.17;3.38;;;;;;;;;;4996475;28;20208;-62
2022/10/11 00:52:33;;;;;;;10.68;2.80;;;;;;;;;;4995659;28;20723;-62
2022/10/11 00:54:59;;;;;;;12.07;3.70;;;;;;;;;;4994960;28;20209;-62
2022/10/11 00:57:24;;;;;;;9.50;3.20;;;;;;;;;;4995382;28;20222;-62
2022/10/11 00:59:51;;;;;;;13.40;3.30;;;;;;;;;;4997137;28;20442;-62
2022/10/11 01:02:16;;;;;;;10.93;3.20;;;;;;;;;;4995653;28;20239;-62
2022/10/11 01:04:41;;;;;;;15.02;3.30;;;;;;;;;;4990774;28;20307;-62
2022/10/11 01:07:07;;;;;;;15.57;3.63;;;;;;;;;;4989617;28;20630;-62
2022/10/11 01:09:32;;;;;;;11.43;3.05;;;;;;;;;;4989264;28;20655;-62
2022/10/11 01:11:58;;;;;;;10.95;3.58;;;;;;;;;;4995084;28;20216;-62
2022/10/11 01:14:34;;;;;;;11.75;3.10;;;;;;;;;;4995241;28;20212;-62
2022/10/11 01:17:12;;;;;;;12.68;4.22;;;;;;;;;;4996307;28;20221;-62
2022/10/11 01:19:44;;;;;;;10.50;2.95;;;;;;;;;;4995047;28;20220;-62
2022/10/11 01:22:15;;;;;;;9.50;3.20;;;;;;;;;;4994412;28;20565;-62
2022/10/11 01:24:47;;;;;;;12.02;3.20;;;;;;;;;;4995203;28;20204;-62
2022/10/11 01:27:18;;;;;;;14.43;3.65;;;;;;;;;;4990329;28;20212;-62
2022/10/11 01:29:45;;;;;;;12.27;3.33;;;;;;;;;;4989245;28;20259;-62
2022/10/11 01:32:14;;;;;;;13.93;3.58;;;;;;;;;;4987629;28;20212;-62
2022/10/11 01:34:42;;;;;;;12.82;3.58;;;;;;;;;;4993338;28;20208;-62
2022/10/11 01:37:19;;;;;;;12.57;3.13;;;;;;;;;;4994364;28;20374;-62
2022/10/11 01:39:46;;;;;;;10.05;3.30;;;;;;;;;;4995122;28;20702;-62
2022/10/11 01:42:12;;;;;;;10.27;3.10;;;;;;;;;;4994855;28;20235;-62
2022/10/11 01:44:37;;;;;;;10.82;3.25;;;;;;;;;;4994886;28;20328;-62
2022/10/11 01:47:03;;;;;;;9.20;2.53;;;;;;;;;;4994486;28;20256;-62
2022/10/11 01:49:28;;;;;;;11.13;3.20;;;;;;;;;;4993278;28;20208;-62
2022/10/11 01:51:54;;;;;;;11.60;3.25;;;;;;;;;;4989081;28;20209;-62
2022/10/11 01:54:19;;;;;;;10.63;3.42;;;;;;;;;;4987709;28;20831;-63
2022/10/11 01:56:47;;;;;;;9.30;3.40;;;;;;;;;;4993488;28;20693;-62
2022/10/11 01:59:33;;;;;;;13.63;3.33;;;;;;;;;;4994979;28;20275;-62
2022/10/11 02:02:13;;;;;;;14.52;3.40;;;;;;;;;;4995759;28;20228;-62
2022/10/11 02:04:47;;;;;;;14.82;3.45;;;;;;;;;;4994809;28;20249;-62
2022/10/11 02:07:34;;;;;;;12.07;3.20;;;;;;;;;;4994357;28;20244;-62
2022/10/11 02:10:04;;;;;;;8.38;2.85;;;;;;;;;;4995849;28;20263;-62
2022/10/11 02:12:31;;;;;;;17.15;3.53;;;;;;;;;;4989601;28;20867;-62
2022/10/11 02:14:56;;;;;;;9.98;2.97;;;;;;;;;;4992892;28;20228;-62
2022/10/11 02:17:22;;;;;;;17.02;4.05;;;;;;;;;;4990601;28;20216;-62
2022/10/11 02:19:48;;;;;;;12.30;3.45;;;;;;;;;;4996046;28;20642;-62
2022/10/11 02:22:15;;;;;;;13.48;3.40;;;;;;;;;;5005290;28;20221;-62
2022/10/11 02:24:41;;;;;;;15.30;4.03;;;;;;;;;;5004743;28;20239;-62
2022/10/11 02:27:07;;;;;;;12.43;3.30;;;;;;;;;;5004864;28;20547;-62
2022/10/11 02:29:33;;;;;;;10.43;2.83;;;;;;;;;;5005687;28;20215;-63
2022/10/11 02:31:58;;;;;;;11.98;3.95;;;;;;;;;;5004068;28;20401;-62
2022/10/11 02:34:24;;;;;;;16.33;3.38;;;;;;;;;;5001036;28;20910;-62
2022/10/11 02:36:51;;;;;;;9.10;2.97;;;;;;;;;;4987744;28;20220;-62
2022/10/11 02:39:24;;;;;;;14.43;3.10;;;;;;;;;;4991568;28;20254;-62
2022/10/11 02:41:50;;;;;;;12.27;3.05;;;;;;;;;;4994875;28;20672;-62
2022/10/11 02:44:16;;;;;;;12.60;3.00;;;;;;;;;;4998683;28;20716;-62
2022/10/11 02:46:42;;;;;;;13.18;3.40;;;;;;;;;;4997752;28;20274;-62
2022/10/11 02:49:07;;;;;;;11.82;3.00;;;;;;;;;;4999980;28;20232;-62
2022/10/11 02:51:32;;;;;;;15.27;3.47;;;;;;;;;;4997763;28;20239;-62
2022/10/11 02:53:57;;;;;;;16.23;4.20;;;;;;;;;;4999117;28;20663;-62
2022/10/11 02:56:23;;;;;;;11.90;3.20;;;;;;;;;;4997628;28;20208;-62
2022/10/11 02:58:48;;;;;;;12.07;2.90;;;;;;;;;;4992313;28;20244;-62
2022/10/11 03:01:13;;;;;;;13.13;3.13;;;;;;;;;;4991207;28;20653;-62
2022/10/11 03:03:39;;;;;;;12.57;3.13;;;;;;;;;;4991685;28;20730;-62
2022/10/11 03:06:04;;;;;;;10.30;2.78;;;;;;;;;;4999315;28;20215;-62
2022/10/11 03:08:29;;;;;;;12.82;2.70;;;;;;;;;;4998984;28;20228;-62
2022/10/11 03:10:55;;;;;;;12.88;2.83;;;;;;;;;;5000178;28;20646;-62
2022/10/11 03:13:20;;;;;;;13.73;2.70;;;;;;;;;;4999076;28;21297;-62
2022/10/11 03:15:47;;;;;;;13.70;3.22;;;;;;;;;;4997551;28;20718;-62
2022/10/11 03:18:12;;;;;;;15.55;3.45;;;;;;;;;;4997959;28;20223;-62
2022/10/11 03:20:37;;;;;;;10.85;2.90;;;;;;;;;;4993918;28;20871;-62
2022/10/11 03:23:03;;;;;;;14.43;3.40;;;;;;;;;;4990566;28;20314;-62
2022/10/11 03:25:28;;;;;;;11.85;2.58;;;;;;;;;;4991428;28;20948;-62
2022/10/11 03:27:53;;;;;;;9.65;2.65;;;;;;;;;;4998437;28;20228;-62
2022/10/11 03:30:19;;;;;;;9.68;2.38;;;;;;;;;;4998452;28;20224;-62
2022/10/11 03:32:44;;;;;;;16.90;3.90;;;;;;;;;;4999039;28;20583;-62
2022/10/11 03:35:09;;;;;;;9.70;2.80;;;;;;;;;;4998586;28;20209;-62
2022/10/11 03:37:34;;;;;;;10.45;3.40;;;;;;;;;;4998121;28;20681;-62
2022/10/11 03:40:00;;;;;;;9.40;2.80;;;;;;;;;;4999250;28;20243;-62
2022/10/11 03:42:25;;;;;;;14.77;2.80;;;;;;;;;;4995363;28;20215;-62
2022/10/11 03:44:50;;;;;;;12.75;3.33;;;;;;;;;;4991775;28;20559;-62
2022/10/11 03:47:16;;;;;;;10.45;2.70;;;;;;;;;;4991292;28;20225;-62
2022/10/11 03:49:41;;;;;;;11.65;3.28;;;;;;;;;;4994039;28;20584;-62
2022/10/11 03:52:06;;;;;;;9.25;2.83;;;;;;;;;;4998142;28;20634;-62
2022/10/11 03:54:31;;;;;;;13.10;3.10;;;;;;;;;;4998233;28;20223;-62
2022/10/11 03:56:57;;;;;;;14.75;3.30;;;;;;;;;;4997896;28;20223;-62
2022/10/11 03:59:23;;;;;;;12.18;3.47;;;;;;;;;;4997039;28;20221;-62
2022/10/11 04:01:48;;;;;;;12.48;3.53;;;;;;;;;;4997257;28;20667;-62
2022/10/11 04:04:13;;;;;;;8.60;2.95;;;;;;;;;;4995763;28;20628;-62
2022/10/11 04:06:38;;;;;;;13.48;3.20;;;;;;;;;;4991416;28;20291;-62
2022/10/11 04:09:04;;;;;;;9.80;2.75;;;;;;;;;;4991032;28;20509;-62
2022/10/11 04:11:29;;;;;;;10.63;3.28;;;;;;;;;;4990990;28;20290;-63
2022/10/11 04:13:55;;;;;;;7.57;2.60;;;;;;;;;;4998234;28;20303;-63
2022/10/11 04:16:20;;;;;;;13.45;2.97;;;;;;;;;;4997106;28;20224;-62
2022/10/11 04:18:46;;;;;;;10.85;3.38;;;;;;;;;;4997325;28;20216;-63
2022/10/11 04:21:11;;;;;;;8.70;2.53;;;;;;;;;;4996426;28;20270;-63
2022/10/11 04:23:36;;;;;;;11.85;2.97;;;;;;;;;;4998224;28;20712;-63
2022/10/11 04:26:03;;;;;;;11.52;3.22;;;;;;;;;;4996609;28;20239;-63
2022/10/11 04:28:28;;;;;;;9.98;2.85;;;;;;;;;;4992050;28;20238;-62
2022/10/11 04:30:54;;;;;;;10.45;2.97;;;;;;;;;;4990451;28;20688;-62
2022/10/11 04:33:19;;;;;;;10.60;2.58;;;;;;;;;;4989787;28;20315;-63
2022/10/11 04:35:44;;;;;;;11.18;3.20;;;;;;;;;;4996332;28;20217;-63
2022/10/11 04:38:10;;;;;;;8.32;2.70;;;;;;;;;;5002175;28;20208;-63
2022/10/11 04:40:35;;;;;;;13.48;3.13;;;;;;;;;;5002540;28;20671;-63
2022/10/11 04:43:01;;;;;;;10.68;3.03;;;;;;;;;;5002752;28;20680;-63
2022/10/11 04:45:26;;;;;;;10.30;2.60;;;;;;;;;;5003217;28;20812;-63
2022/10/11 04:47:51;;;;;;;13.18;3.10;;;;;;;;;;5000975;28;20231;-63
2022/10/11 04:50:17;;;;;;;12.23;2.30;;;;;;;;;;4998758;28;20227;-63
2022/10/11 04:52:42;;;;;;;15.63;3.00;;;;;;;;;;4986939;28;20894;-63
2022/10/11 04:55:07;;;;;;;13.20;2.80;;;;;;;;;;4989616;28;21124;-62
2022/10/11 04:57:33;;;;;;;13.02;2.60;;;;;;;;;;4993960;28;20208;-63
2022/10/11 04:59:58;;;;;;;9.63;2.65;;;;;;;;;;4996158;28;20311;-63
2022/10/11 05:02:23;;;;;;;11.32;3.08;;;;;;;;;;4996220;28;20219;-63
2022/10/11 05:04:48;;;;;;;12.20;3.20;;;;;;;;;;4997171;28;20270;-63
2022/10/11 05:07:14;;;;;;;8.93;2.80;;;;;;;;;;4988491;28;20605;-63
2022/10/11 05:09:39;;;;;;;10.15;2.90;;;;;;;;;;4989712;28;20312;-63
2022/10/11 05:12:04;;;;;;;12.43;3.00;;;;;;;;;;4990049;28;20932;-63
2022/10/11 05:14:30;;;;;;;12.45;2.60;;;;;;;;;;4994982;28;20354;-63
2022/10/11 05:16:55;;;;;;;9.13;2.80;;;;;;;;;;4996485;28;20238;-63
2022/10/11 05:19:20;;;;;;;8.18;2.38;;;;;;;;;;4996422;28;20220;-63
2022/10/11 05:21:46;;;;;;;10.90;3.10;;;;;;;;;;4995418;28;20604;-63
2022/10/11 05:24:11;;;;;;;11.82;2.92;;;;;;;;;;4995647;28;20205;-63
2022/10/11 05:26:36;;;;;;;15.05;2.80;;;;;;;;;;4996317;28;20254;-63
2022/10/11 05:29:02;;;;;;;9.90;2.53;;;;;;;;;;4990748;28;20286;-63
2022/10/11 05:31:27;;;;;;;9.68;2.60;;;;;;;;;;4989590;28;20223;-63
2022/10/11 05:33:52;;;;;;;11.10;2.30;;;;;;;;;;4989275;28;20227;-63
2022/10/11 05:36:17;;;;;;;8.18;2.08;;;;;;;;;;4993194;28;20212;-63
2022/10/11 05:38:43;;;;;;;8.82;2.03;;;;;;;;;;4996682;28;20247;-64
2022/10/11 05:41:09;;;;;;;9.75;2.28;;;;;;;;;;4996341;28;20216;-63
2022/10/11 05:43:34;;;;;;;7.72;2.08;;;;;;;;;;4996460;28;20375;-64
2022/10/11 05:45:59;;;;;;;8.10;2.20;;;;;;;;;;4996696;28;20363;-65
2022/10/11 05:48:25;;;;;;;9.73;2.08;;;;;;;;;;4997351;28;20433;-64
2022/10/11 05:50:50;;;;;;;10.75;1.88;;;;;;;;;;4995903;28;20687;-62
2022/10/11 05:53:16;;;;;;;11.07;3.17;;;;;;;;;;4990360;28;20527;-64
2022/10/11 05:55:41;;;;;;;8.35;2.05;;;;;;;;;;4992046;28;20209;-64
2022/10/11 05:58:07;;;;;;;11.63;2.05;;;;;;;;;;4991837;28;20575;-64
2022/10/11 06:00:34;;;;;;;13.18;2.55;;;;;;;;;;4999011;28;20213;-64
2022/10/11 06:02:59;;;;;;;14.48;2.55;;;;;;;;;;4998778;28;20204;-64
2022/10/11 06:05:25;;;;;;;10.00;2.63;;;;;;;;;;4998058;28;20215;-64
2022/10/11 06:07:50;;;;;;;11.75;2.10;;;;;;;;;;4999086;28;20212;-65
2022/10/11 06:10:16;;;;;;;7.30;1.58;;;;;;;;;;4997110;28;20208;-64
2022/10/11 06:12:41;;;;;;;10.07;1.90;;;;;;;;;;4997706;28;20805;-64
2022/10/11 06:15:07;;;;;;;7.75;1.70;;;;;;;;;;4991912;28;20212;-64
2022/10/11 06:17:33;;;;;;;7.70;1.60;;;;;;;;;;4991496;28;20263;-64
2022/10/11 06:19:58;;;;;;;9.25;1.70;;;;;;;;;;4992483;28;20209;-64
2022/10/11 06:22:23;;;;;;;8.02;1.90;;;;;;;;;;4998199;28;20215;-64
2022/10/11 06:24:48;;;;;;;9.98;1.70;;;;;;;;;;4998506;28;20243;-64
2022/10/11 06:27:14;;;;;;;8.38;1.75;;;;;;;;;;4997754;28;20228;-64
2022/10/11 06:29:39;;;;;;;10.40;2.10;;;;;;;;;;4999525;28;20745;-64
2022/10/11 06:32:05;;;;;;;9.00;1.88;;;;;;;;;;4997904;28;20216;-65
2022/10/11 06:34:30;;;;;;;10.13;2.50;;;;;;;;;;4999949;28;20220;-64
2022/10/11 06:36:55;;;;;;;15.75;2.90;;;;;;;;;;4996966;28;20216;-64
2022/10/11 06:39:20;;;;;;;11.05;2.63;;;;;;;;;;5011253;28;20239;-64
2022/10/11 06:41:46;;;;;;;12.20;2.40;;;;;;;;;;5030348;28;20539;-64
2022/10/11 06:44:11;;;;;;;11.90;2.85;;;;;;;;;;5030126;28;20601;-63
2022/10/11 06:46:36;;;;;;;9.13;2.38;;;;;;;;;;5009346;28;20234;-64
2022/10/11 06:49:02;;;;;;;9.07;3.10;;;;;;;;;;5010652;28;20231;-62
2022/10/11 06:51:28;;;;;;;19.10;3.80;;;;;;;;;;5010596;28;20213;-64
2022/10/11 06:53:55;;;;;;;19.17;4.00;;;;;;;;;;5009677;28;20220;-64
2022/10/11 06:56:20;;;;;;;17.02;3.35;;;;;;;;;;5009740;28;20695;-64
2022/10/11 06:58:46;;;;;;;15.50;2.70;;;;;;;;;;5007156;28;20227;-63
2022/10/11 07:01:12;;;;;;;17.25;2.63;;;;;;;;;;5006790;28;20205;-63
2022/10/11 07:03:53;;;;;;;14.63;2.92;;;;;;;;;;5029346;28;20695;-64
2022/10/11 07:06:19;;;;;;;13.13;2.28;;;;;;;;;;5022241;28;20687;-63
2022/10/11 07:08:44;;;;;;;14.30;2.33;;;;;;;;;;5008338;28;20240;-62
2022/10/11 07:11:10;;;;;;;11.20;3.03;;;;;;;;;;5009163;28;20213;-63
2022/10/11 07:13:36;;;;;;;11.77;3.00;;;;;;;;;;5008225;28;20579;-63
2022/10/11 07:16:02;;;;;;;10.63;3.47;;;;;;;;;;5008823;28;20275;-62
2022/10/11 07:18:27;;;;;;;14.20;3.72;;;;;;;;;;5009164;28;20677;-63
2022/10/11 07:20:52;;;;;;;14.10;3.90;;;;;;;;;;5007914;28;20211;-63
2022/10/11 07:23:17;;;;;;;8.05;3.47;;;;;;;;;;5008517;28;20263;-63
2022/10/11 07:25:43;;;;;;;13.23;3.95;;;;;;;;;;5009021;28;20220;-63
2022/10/11 07:28:09;;;;;;;9.32;4.18;;;;;;;;;;5008001;28;20225;-62
2022/10/11 07:30:37;;;;;;;10.77;4.30;;;;;;;;;;5009609;28;20696;-63
2022/10/11 07:33:03;;;;;;;8.77;4.22;;;;;;;;;;5009105;28;20481;-63
2022/10/11 07:35:28;;;;;;;10.07;4.07;;;;;;;;;;5008564;28;20215;-63
2022/10/11 07:37:53;;;;;;;9.43;4.25;;;;;;;;;;5009163;28;20227;-63
2022/10/11 07:40:19;;;;;;;13.25;4.18;;;;;;;;;;5008356;28;20208;-63
2022/10/11 07:42:44;;;;;;;17.83;4.75;;;;;;;;;;5007790;28;20212;-63
2022/10/11 07:45:09;;;;;;;13.18;4.85;;;;;;;;;;5008898;28;20209;-63
2022/10/11 07:47:34;;;;;;;12.63;4.43;;;;;;;;;;5009182;28;20588;-63
2022/10/11 07:50:00;;;;;;;9.35;3.75;;;;;;;;;;5007594;28;20209;-63
2022/10/11 07:52:25;;;;;;;11.68;4.07;;;;;;;;;;5007894;28;20297;-63
2022/10/11 07:54:50;;;;;;;7.78;4.13;;;;;;;;;;5009085;28;20208;-63
2022/10/11 07:57:15;;;;;;;11.10;3.75;;;;;;;;;;5007065;28;20216;-63
2022/10/11 07:59:41;;;;;;;9.73;4.10;;;;;;;;;;5008697;28;20616;-63
2022/10/11 08:02:10;;;;;;;9.98;4.38;;;;;;;;;;5007689;28;20278;-63
2022/10/11 08:04:35;;;;;;;11.30;4.20;;;;;;;;;;5007657;28;20217;-63
2022/10/11 08:07:01;;;;;;;9.77;4.45;;;;;;;;;;5007600;28;20262;-63
2022/10/11 08:09:26;;;;;;;10.82;4.07;;;;;;;;;;5007788;28;20243;-63
2022/10/11 08:11:51;;;;;;;13.60;4.53;;;;;;;;;;5006930;28;20216;-63
2022/10/11 08:14:17;;;;;;;11.20;4.57;;;;;;;;;;5007917;28;20352;-63
2022/10/11 08:16:42;;;;;;;15.18;4.05;;;;;;;;;;5007300;28;20243;-63
2022/10/11 08:19:08;;;;;;;13.10;3.88;;;;;;;;;;5007413;28;20212;-63
2022/10/11 08:21:34;;;;;;;11.10;4.15;;;;;;;;;;5006263;28;20212;-63
2022/10/11 08:24:00;;;;;;;10.68;4.45;;;;;;;;;;5007185;28;20212;-63
2022/10/11 08:26:25;;;;;;;11.52;3.90;;;;;;;;;;5007272;28;20209;-63
2022/10/11 08:28:50;;;;;;;11.15;3.75;;;;;;;;;;5008552;28;20231;-63
2022/10/11 08:31:16;;;;;;;12.05;3.88;;;;;;;;;;5007226;28;20830;-63
2022/10/11 08:33:41;;;;;;;11.18;3.63;;;;;;;;;;5008594;28;20231;-63
2022/10/11 08:36:06;;;;;;;11.80;3.60;;;;;;;;;;5007416;28;20213;-63
2022/10/11 08:38:32;;;;;;;11.68;3.88;;;;;;;;;;5007119;28;20216;-63
2022/10/11 08:40:58;;;;;;;10.68;3.40;;;;;;;;;;5007571;28;20218;-63
2022/10/11 08:43:24;;;;;;;15.02;3.40;;;;;;;;;;5007323;28;20284;-63
2022/10/11 08:45:51;;;;;;;11.90;3.80;;;;;;;;;;5007647;28;20223;-63
2022/10/11 08:48:18;;;;;;;11.80;3.53;;;;;;;;;;5006521;28;20386;-63
2022/10/11 08:50:43;;;;;;;11.48;3.00;;;;;;;;;;5007898;28;20208;-63
2022/10/11 08:53:13;;;;;;;12.30;3.95;;;;;;;;;;5005635;28;20570;-63
2022/10/11 08:55:42;;;;;;;15.88;2.92;;;;;;;;;;5006530;28;20212;-63
2022/10/11 08:58:08;;;;;;;17.00;3.28;;;;;;;;;;4989396;28;20592;-63
2022/10/11 09:00:34;;;;;;;14.70;3.40;;;;;;;;;;5005552;28;20699;-63
2022/10/11 09:03:00;;;;;;;11.60;3.00;;;;;;;;;;5007386;28;20251;-63
2022/10/11 09:05:28;;;;;;;7.95;2.97;;;;;;;;;;5006725;28;20222;-63
2022/10/11 09:07:59;;;;;;;11.70;3.42;;;;;;;;;;5008825;28;20295;-63
2022/10/11 09:10:43;;;;;;;13.07;2.55;;;;;;;;;;5012206;28;20240;-63
2022/10/11 09:13:14;;;;;;;10.60;2.53;;;;;;;;;;5011609;28;20220;-63
2022/10/11 09:15:48;;;;;;;11.13;2.95;;;;;;;;;;5012818;28;20208;-63
2022/10/11 09:18:18;;;;;;;11.07;2.67;;;;;;;;;;5011079;28;20208;-63
2022/10/11 09:20:46;;;;;;;20.40;3.47;;;;;;;;;;5010809;28;20220;-63
2022/10/11 09:23:16;;;;;;;13.20;3.30;;;;;;;;;;5011452;28;20208;-63
2022/10/11 09:25:46;;;;;;;10.95;3.08;;;;;;;;;;5011333;28;20204;-63
2022/10/11 09:28:28;;;;;;;13.73;3.60;;;;;;;;;;5010062;28;20232;-63
2022/10/11 09:30:53;;;;;;;12.20;3.55;;;;;;;;;;5011424;28;20338;-63
2022/10/11 09:33:20;;;;;;;12.77;3.40;;;;;;;;;;5010812;28;20303;-63
2022/10/11 09:35:46;;;;;;;8.60;3.55;;;;;;;;;;5011903;28;20220;-63
2022/10/11 09:38:17;;;;;;;13.27;3.70;;;;;;;;;;5012070;28;20208;-63
2022/10/11 09:40:47;;;;;;;13.77;3.67;;;;;;;;;;5012462;28;20232;-63
2022/10/11 09:43:12;;;;;;;11.30;3.40;;;;;;;;;;5011264;28;20557;-63
2022/10/11 09:45:41;;;;;;;10.82;3.55;;;;;;;;;;5011272;28;20215;-63
2022/10/11 09:48:06;;;;;;;11.02;3.65;;;;;;;;;;5011650;28;20290;-63
2022/10/11 09:50:32;;;;;;;11.75;3.63;;;;;;;;;;5011975;28;20698;-63
2022/10/11 09:52:58;;;;;;;15.50;3.83;;;;;;;;;;5012168;28;20299;-63
2022/10/11 09:55:32;;;;;;;11.77;4.00;;;;;;;;;;5011157;28;20201;-63
2022/10/11 09:57:57;;;;;;;16.40;4.68;;;;;;;;;;5011954;28;20208;-63
2022/10/11 10:00:23;;;;;;;11.30;3.40;;;;;;;;;;5011995;28;20230;-63
2022/10/11 10:02:49;;;;;;;12.75;3.15;;;;;;;;;;5011483;28;20209;-63
2022/10/11 10:05:16;;;;;;;11.32;4.03;;;;;;;;;;5012002;28;20235;-63
2022/10/11 10:08:01;;;;;;;10.80;3.13;;;;;;;;;;5012045;28;20745;-63
2022/10/11 10:10:29;;;;;;;13.65;3.95;;;;;;;;;;5011363;28;20208;-63
2022/10/11 10:12:55;;;;;;;10.30;3.60;;;;;;;;;;5011929;28;20216;-63
2022/10/11 10:15:21;;;;;;;10.63;2.85;;;;;;;;;;5010680;28;20208;-63
2022/10/11 10:17:49;;;;;;;10.10;2.78;;;;;;;;;;5011358;28;20204;-63
2022/10/11 10:20:20;;;;;;;10.30;3.22;;;;;;;;;;5011857;28;20216;-63
2022/10/11 10:22:46;;;;;;;12.25;2.97;;;;;;;;;;5012071;28;20200;-63
2022/10/11 10:25:11;;;;;;;10.80;3.35;;;;;;;;;;5010816;28;20216;-63
2022/10/11 10:27:37;;;;;;;13.35;2.95;;;;;;;;;;5010400;28;20326;-63
2022/10/11 10:30:09;;;;;;;11.00;2.85;;;;;;;;;;5011785;28;20220;-63
2022/10/11 10:32:48;;;;;;;12.02;2.38;;;;;;;;;;5011197;28;20215;-63
2022/10/11 10:35:29;;;;;;;8.77;2.30;;;;;;;;;;5012915;28;20226;-63
2022/10/11 10:37:56;;;;;;;11.07;2.20;;;;;;;;;;5014689;28;20213;-63
2022/10/11 10:40:23;;;;;;;10.07;2.38;;;;;;;;;;5014943;28;20209;-63
2022/10/11 10:42:48;;;;;;;7.45;2.05;;;;;;;;;;5015267;28;20219;-63
2022/10/11 10:45:14;;;;;;;11.63;2.53;;;;;;;;;;5012913;28;20299;-63
2022/10/11 10:47:56;;;;;;;11.85;2.78;;;;;;;;;;5015158;28;20226;-63
2022/10/11 10:50:21;;;;;;;9.45;2.10;;;;;;;;;;5013431;28;20583;-63
2022/10/11 10:52:48;;;;;;;12.15;2.30;;;;;;;;;;5014496;28;20212;-63
2022/10/11 10:55:20;;;;;;;9.43;2.40;;;;;;;;;;5014611;28;20212;-63
2022/10/11 10:57:46;;;;;;;11.05;2.80;;;;;;;;;;5015225;28;20268;-63
2022/10/11 11:00:14;;;;;;;11.18;2.00;;;;;;;;;;5013821;28;20228;-63
2022/10/11 11:02:43;;;;;;;10.43;2.30;;;;;;;;;;5013856;28;20212;-63
2022/10/11 11:05:12;;;;;;;11.65;2.20;;;;;;;;;;5014513;28;20235;-63
2022/10/11 11:07:42;;;;;;;8.85;2.05;;;;;;;;;;5013977;28;20681;-63
2022/10/11 11:10:15;;;;;;;10.45;2.75;;;;;;;;;;5013168;28;20235;-63
2022/10/11 11:12:44;;;;;;;10.13;1.92;;;;;;;;;;5012699;28;20208;-63
2022/10/11 11:15:09;;;;;;;7.97;1.70;;;;;;;;;;5013068;28;20285;-63
2022/10/11 11:17:58;;;;;;;10.13;2.30;;;;;;;;;;5014715;28;20725;-63
2022/10/11 11:20:26;;;;;;;10.95;1.90;;;;;;;;;;5013407;28;20266;-63
2022/10/11 11:23:04;;;;;;;9.77;2.03;;;;;;;;;;5013482;28;20225;-63
2022/10/11 11:25:37;;;;;;;7.97;2.33;;;;;;;;;;5013029;28;20216;-63
2022/10/11 11:28:06;;;;;;;11.68;2.33;;;;;;;;;;5013254;28;20374;-63
2022/10/11 11:30:46;;;;;;;12.00;2.03;;;;;;;;;;5013262;28;20741;-63
2022/10/11 11:33:21;;;;;;;7.75;1.90;;;;;;;;;;5014014;28;20220;-63
2022/10/11 11:35:47;;;;;;;10.50;2.38;;;;;;;;;;5013651;28;20295;-62
2022/10/11 11:38:36;;;;;;;9.05;2.03;;;;;;;;;;5013898;28;20285;-63
2022/10/11 11:41:03;;;;;;;15.18;2.63;;;;;;;;;;5011877;28;20220;-63
2022/10/11 11:43:31;;;;;;;11.80;1.98;;;;;;;;;;5014356;28;20209;-63
2022/10/11 11:46:08;;;;;;;11.38;1.92;;;;;;;;;;5013828;28;20235;-63
2022/10/11 11:48:33;;;;;;;9.40;1.45;;;;;;;;;;5012798;28;20220;-63
2022/10/11 11:51:01;;;;;;;12.52;1.77;;;;;;;;;;5012951;28;20208;-63
2022/10/11 11:53:43;;;;;;;12.98;1.75;;;;;;;;;;5014016;28;20204;-63
2022/10/11 11:56:16;;;;;;;8.25;1.60;;;;;;;;;;5011385;28;20299;-63
2022/10/11 11:58:41;;;;;;;9.30;1.90;;;;;;;;;;5013737;28;20327;-63
2022/10/11 12:01:12;;;;;;;10.43;2.00;;;;;;;;;;5013438;28;20308;-63
2022/10/11 12:03:38;;;;;;;12.02;2.00;;;;;;;;;;5013351;28;20286;-63
2022/10/11 12:06:11;;;;;;;8.80;1.80;;;;;;;;;;5012124;28;20213;-63
2022/10/11 12:08:36;;;;;;;8.75;1.90;;;;;;;;;;5007778;28;20311;-63
2022/10/11 12:11:02;;;;;;;10.45;2.17;;;;;;;;;;5004013;28;20307;-64
2022/10/11 12:13:34;;;;;;;11.68;1.60;;;;;;;;;;5006985;28;20204;-63
2022/10/11 12:16:08;;;;;;;9.38;1.70;;;;;;;;;;5004245;28;20209;-63
2022/10/11 12:18:34;;;;;;;8.82;1.85;;;;;;;;;;5006476;28;20216;-63
2022/10/11 12:21:00;;;;;;;10.25;1.85;;;;;;;;;;5008230;28;20208;-62
2022/10/11 12:23:34;;;;;;;9.45;1.73;;;;;;;;;;5006580;28;20614;-63
2022/10/11 12:26:17;;;;;;;6.85;1.80;;;;;;;;;;5006352;28;20624;-63
2022/10/11 12:28:42;;;;;;;10.93;2.50;;;;;;;;;;5006378;28;20233;-63
2022/10/11 12:31:18;;;;;;;9.23;1.77;;;;;;;;;;5006478;28;20696;-63
2022/10/11 12:33:44;;;;;;;9.57;1.90;;;;;;;;;;5007029;28;20278;-63
2022/10/11 12:36:15;;;;;;;13.25;2.22;;;;;;;;;;5007207;28;20242;-63
2022/10/11 12:38:40;;;;;;;7.93;1.92;;;;;;;;;;5006627;28;20243;-63
2022/10/11 12:41:09;;;;;;;7.55;1.70;;;;;;;;;;5007274;28;20220;-63
2022/10/11 12:43:47;;;;;;;9.85;1.90;;;;;;;;;;5007540;28;20258;-63
2022/10/11 12:46:25;;;;;;;10.57;1.70;;;;;;;;;;5006087;28;20208;-63
2022/10/11 12:48:52;;;;;;;11.82;1.90;;;;;;;;;;5007955;28;20303;-62
2022/10/11 12:51:27;;;;;;;7.88;1.50;;;;;;;;;;5006521;28;20250;-62
2022/10/11 12:53:58;;;;;;;8.77;1.80;;;;;;;;;;5006105;28;20612;-63
2022/10/11 12:56:39;;;;;;;8.38;1.95;;;;;;;;;;5006889;28;20236;-63
2022/10/11 12:59:05;;;;;;;10.13;1.88;;;;;;;;;;5005932;28;20248;-63
2022/10/11 13:01:34;;;;;;;8.10;1.83;;;;;;;;;;5006055;28;20295;-62
2022/10/11 13:04:02;;;;;;;6.75;1.58;;;;;;;;;;5006167;28;20226;-62
2022/10/11 13:06:29;;;;;;;11.32;1.65;;;;;;;;;;5009972;28;20232;-64
2022/10/11 13:08:55;;;;;;;8.45;1.98;;;;;;;;;;5005538;28;20238;-63
2022/10/11 13:11:22;;;;;;;6.70;1.40;;;;;;;;;;5005325;28;20248;-63
2022/10/11 13:13:49;;;;;;;9.00;1.60;;;;;;;;;;5005429;28;20697;-63
2022/10/11 13:16:15;;;;;;;10.48;1.83;;;;;;;;;;5005466;28;20213;-63
2022/10/11 13:18:41;;;;;;;9.88;2.30;;;;;;;;;;5007285;28;20212;-63
2022/10/11 13:21:15;;;;;;;11.25;1.70;;;;;;;;;;5004688;28;20213;-64
2022/10/11 13:23:40;;;;;;;10.82;1.95;;;;;;;;;;5010669;28;20261;-62
2022/10/11 13:26:05;;;;;;;10.02;1.63;;;;;;;;;;5013003;28;20205;-63
2022/10/11 13:28:31;;;;;;;11.60;1.95;;;;;;;;;;5026531;28;20230;-63
2022/10/11 13:30:56;;;;;;;8.55;2.30;;;;;;;;;;5026924;28;20238;-63
2022/10/11 13:33:23;;;;;;;6.63;1.85;;;;;;;;;;5024569;28;20231;-63
2022/10/11 13:35:49;;;;;;;7.47;1.63;;;;;;;;;;5026712;28;20227;-62
2022/10/11 13:38:22;;;;;;;9.15;2.30;;;;;;;;;;5024951;28;20250;-62
2022/10/11 13:40:47;;;;;;;12.55;2.00;;;;;;;;;;5025045;28;20212;-63
2022/10/11 13:43:14;;;;;;;7.25;1.58;;;;;;;;;;5024644;28;20219;-63
2022/10/11 13:45:40;;;;;;;9.20;1.77;;;;;;;;;;5025095;28;20216;-63
2022/10/11 13:48:05;;;;;;;8.07;1.65;;;;;;;;;;5005032;28;20733;-63
2022/10/11 13:50:32;;;;;;;10.98;1.80;;;;;;;;;;5005331;28;20634;-63
2022/10/11 13:52:58;;;;;;;8.88;1.77;;;;;;;;;;5006645;28;20216;-62
2022/10/11 13:55:25;;;;;;;8.18;1.63;;;;;;;;;;5005659;28;20285;-63
2022/10/11 13:57:51;;;;;;;7.72;1.95;;;;;;;;;;4989658;28;20292;-63
2022/10/11 14:00:16;;;;;;;9.45;1.80;;;;;;;;;;5006216;28;20331;-63
2022/10/11 14:02:48;;;;;;;10.00;1.67;;;;;;;;;;5006103;28;20269;-63
2022/10/11 14:05:21;;;;;;;8.68;1.40;;;;;;;;;;5005331;28;20224;-63
2022/10/11 14:07:46;;;;;;;11.25;1.67;;;;;;;;;;5005604;28;20220;-63
2022/10/11 14:10:18;;;;;;;9.00;2.00;;;;;;;;;;5007809;28;20937;-63
2022/10/11 14:12:43;;;;;;;7.75;1.48;;;;;;;;;;5008993;28;20680;-63
2022/10/11 14:15:22;;;;;;;7.35;2.17;;;;;;;;;;5008978;28;20218;-62
2022/10/11 14:17:47;;;;;;;8.52;1.45;;;;;;;;;;5007157;28;20239;-62
2022/10/11 14:20:13;;;;;;;7.35;1.73;;;;;;;;;;5009119;28;20639;-62
2022/10/11 14:22:38;;;;;;;12.70;1.88;;;;;;;;;;5008293;28;20267;-63
2022/10/11 14:25:03;;;;;;;6.55;1.60;;;;;;;;;;5008817;28;20220;-63
2022/10/11 14:27:29;;;;;;;10.05;1.80;;;;;;;;;;5009148;28;20695;-63
2022/10/11 14:29:54;;;;;;;7.93;1.65;;;;;;;;;;5007927;28;20270;-63
2022/10/11 14:32:22;;;;;;;5.43;1.23;;;;;;;;;;5007286;28;20231;-63
2022/10/11 14:34:48;;;;;;;8.90;1.52;;;;;;;;;;5009727;28;20289;-63